createdAt,value
2019-03-13T00:00:15.523Z,90.40
2019-03-13T00:02:44.693Z,90.20
2019-03-13T00:05:13.164Z,90.10
2019-03-13T00:07:41.545Z,89.80
2019-03-13T00:10:10.649Z,89.50
2019-03-13T00:12:39.139Z,89.30
2019-03-13T00:15:12.502Z,89.30
2019-03-13T00:17:41.033Z,89.30
2019-03-13T00:20:10.501Z,89.20
2019-03-13T00:22:38.895Z,88.70
2019-03-13T00:25:08.479Z,88.90
2019-03-13T00:27:36.894Z,88.90
2019-03-13T00:30:07.406Z,88.60
2019-03-13T00:32:35.898Z,88.60
2019-03-13T00:35:05.634Z,88.80
2019-03-13T00:37:34.023Z,88.60
2019-03-13T00:40:02.431Z,88.20
2019-03-13T00:42:30.851Z,88.30
2019-03-13T00:44:59.311Z,88.10
2019-03-13T00:47:27.706Z,88.10
2019-03-13T00:49:56.098Z,87.60
2019-03-13T00:52:24.486Z,87.50
2019-03-13T00:54:52.946Z,87.60
2019-03-13T00:57:21.408Z,87.60
2019-03-13T00:59:49.773Z,87.50
2019-03-13T01:02:22.591Z,87.00
2019-03-13T01:04:52.610Z,87.00
2019-03-13T01:07:21.023Z,87.70
2019-03-13T01:09:49.409Z,87.10
2019-03-13T01:12:17.851Z,87.40
2019-03-13T01:14:46.258Z,87.40
2019-03-13T01:17:14.711Z,87.60
2019-03-13T01:19:43.117Z,87.70
2019-03-13T01:22:11.698Z,88.00
2019-03-13T01:24:42.198Z,87.90
2019-03-13T01:27:10.589Z,87.80
2019-03-13T01:29:39.057Z,87.70
2019-03-13T01:32:09.169Z,87.80
2019-03-13T01:34:39.239Z,88.10
2019-03-13T01:37:07.669Z,88.00
2019-03-13T01:39:36.053Z,88.30
2019-03-13T01:42:04.533Z,87.90
2019-03-13T01:44:34.026Z,87.70
2019-03-13T01:47:02.425Z,87.70
2019-03-13T01:49:31.006Z,87.60
2019-03-13T01:51:59.418Z,87.20
2019-03-13T01:54:27.815Z,87.30
2019-03-13T01:56:56.393Z,87.30
2019-03-13T01:59:24.766Z,87.10
2019-03-13T02:01:53.238Z,86.90
2019-03-13T02:04:21.658Z,87.10
2019-03-13T02:06:50.045Z,87.10
2019-03-13T02:09:18.457Z,86.90
2019-03-13T02:11:46.906Z,87.10
2019-03-13T02:14:15.289Z,87.10
2019-03-13T02:16:43.762Z,87.10
2019-03-13T02:19:12.191Z,87.20
2019-03-13T02:21:40.622Z,87.10
2019-03-13T02:24:09.057Z,86.80
2019-03-13T02:26:37.482Z,86.60
2019-03-13T02:29:05.940Z,86.80
2019-03-13T02:31:34.339Z,86.70
2019-03-13T02:34:02.745Z,86.80
2019-03-13T02:36:31.147Z,86.50
2019-03-13T02:38:59.532Z,86.40
2019-03-13T02:41:27.949Z,86.40
2019-03-13T02:43:56.341Z,86.20
2019-03-13T02:46:25.746Z,86.00
2019-03-13T02:48:54.132Z,86.10
2019-03-13T02:51:22.520Z,85.90
2019-03-13T02:53:50.962Z,85.50
2019-03-13T02:56:19.354Z,85.30
2019-03-13T02:58:47.814Z,85.10
2019-03-13T03:01:17.847Z,85.20
2019-03-13T03:03:50.980Z,84.90
2019-03-13T03:06:19.379Z,84.90
2019-03-13T03:08:47.821Z,84.90
2019-03-13T03:11:16.207Z,84.80
2019-03-13T03:13:44.767Z,84.50
2019-03-13T03:16:13.149Z,84.60
2019-03-13T03:18:41.593Z,84.70
2019-03-13T03:21:09.984Z,85.10
2019-03-13T03:23:38.407Z,85.50
2019-03-13T03:26:06.814Z,85.90
2019-03-13T03:28:35.322Z,85.70
2019-03-13T03:31:03.796Z,86.40
2019-03-13T03:33:32.222Z,86.70
2019-03-13T03:36:00.641Z,86.90
2019-03-13T03:38:29.030Z,87.00
2019-03-13T03:40:57.495Z,86.90
2019-03-13T03:43:39.164Z,87.20
2019-03-13T03:45:56.070Z,87.10
2019-03-13T03:48:24.579Z,87.40
2019-03-13T03:50:53.007Z,87.10
2019-03-13T03:53:21.429Z,87.30
2019-03-13T03:55:50.997Z,88.00
2019-03-13T03:58:19.381Z,87.40
2019-03-13T04:00:47.944Z,87.50
2019-03-13T04:03:16.314Z,87.10
2019-03-13T04:05:45.702Z,87.00
2019-03-13T04:08:14.125Z,87.10
2019-03-13T04:10:42.512Z,86.90
2019-03-13T04:13:10.909Z,87.10
2019-03-13T04:15:40.316Z,86.90
2019-03-13T04:18:08.747Z,86.20
2019-03-13T04:20:37.121Z,86.40
2019-03-13T04:23:05.553Z,86.00
2019-03-13T04:25:33.957Z,86.00
2019-03-13T04:28:02.395Z,85.50
2019-03-13T04:30:30.772Z,85.90
2019-03-13T04:32:59.198Z,85.90
2019-03-13T04:35:27.602Z,85.80
2019-03-13T04:37:55.992Z,86.30
2019-03-13T04:40:24.449Z,85.40
2019-03-13T04:42:52.891Z,85.20
2019-03-13T04:45:21.286Z,84.90
2019-03-13T04:47:49.672Z,84.70
2019-03-13T04:50:18.159Z,84.80
2019-03-13T04:52:46.546Z,85.10
2019-03-13T04:55:16.129Z,84.60
2019-03-13T04:57:44.569Z,84.60
2019-03-13T05:00:20.152Z,84.40
2019-03-13T05:02:48.526Z,84.30
2019-03-13T05:05:37.712Z,85.20
2019-03-13T05:08:06.196Z,85.00
2019-03-13T05:10:34.601Z,85.00
2019-03-13T05:13:03.089Z,84.90
2019-03-13T05:15:40.067Z,84.50
2019-03-13T05:18:08.451Z,84.70
2019-03-13T05:20:36.863Z,84.90
2019-03-13T05:23:05.315Z,84.90
2019-03-13T05:25:33.732Z,85.30
2019-03-13T05:28:02.143Z,85.70
2019-03-13T05:30:30.591Z,85.70
2019-03-13T05:32:58.976Z,86.10
2019-03-13T05:35:27.410Z,85.80
2019-03-13T05:37:55.839Z,85.90
2019-03-13T05:40:24.223Z,85.90
2019-03-13T05:42:52.667Z,85.70
2019-03-13T05:45:21.122Z,85.70
2019-03-13T05:47:49.513Z,85.60
2019-03-13T05:50:17.958Z,85.80
2019-03-13T05:52:46.398Z,85.80
2019-03-13T05:55:14.789Z,85.60
2019-03-13T05:57:43.222Z,85.50
2019-03-13T06:00:13.317Z,85.60
2019-03-13T06:02:41.729Z,84.90
2019-03-13T06:05:11.069Z,84.90
2019-03-13T06:07:39.624Z,84.50
2019-03-13T06:10:10.603Z,84.30
2019-03-13T06:12:39.002Z,84.40
2019-03-13T06:15:14.534Z,84.60
2019-03-13T06:17:42.930Z,84.70
2019-03-13T06:20:16.139Z,84.90
2019-03-13T06:22:44.528Z,84.90
2019-03-13T06:25:13.673Z,84.70
2019-03-13T06:27:42.063Z,84.50
2019-03-13T06:30:16.556Z,84.20
2019-03-13T06:32:44.988Z,84.10
2019-03-13T06:35:13.417Z,84.50
2019-03-13T06:37:42.063Z,84.30
2019-03-13T06:40:12.478Z,84.20
2019-03-13T06:42:40.880Z,85.20
2019-03-13T06:45:12.455Z,85.30
2019-03-13T06:47:40.880Z,85.00
2019-03-13T06:50:15.450Z,85.30
2019-03-13T06:52:43.865Z,85.70
2019-03-13T06:55:12.237Z,86.00
2019-03-13T06:57:40.668Z,85.70
2019-03-13T07:00:27.149Z,86.20
2019-03-13T07:03:12.339Z,86.60
2019-03-13T07:05:57.372Z,86.50
2019-03-13T07:08:33.442Z,86.30
2019-03-13T07:11:03.501Z,86.40
2019-03-13T07:13:33.581Z,86.60
2019-03-13T07:16:09.639Z,86.80
2019-03-13T07:18:42.345Z,87.30
2019-03-13T07:21:15.349Z,87.20
2019-03-13T07:23:54.541Z,87.40
2019-03-13T07:26:24.572Z,87.30
2019-03-13T07:28:54.693Z,87.40
2019-03-13T07:31:27.652Z,87.40
2019-03-13T07:33:57.692Z,87.50
2019-03-13T07:36:44.068Z,88.20
2019-03-13T07:39:29.384Z,87.20
2019-03-13T07:42:16.013Z,87.50
2019-03-13T07:44:49.024Z,87.40
2019-03-13T07:47:19.034Z,87.90
2019-03-13T07:49:55.166Z,86.90
2019-03-13T07:52:25.179Z,86.80
2019-03-13T07:54:58.091Z,87.10
2019-03-13T07:57:28.146Z,87.50
2019-03-13T08:00:13.104Z,86.70
2019-03-13T08:02:52.651Z,87.10
2019-03-13T08:05:22.694Z,87.00
2019-03-13T08:07:55.585Z,86.90
2019-03-13T08:10:28.312Z,86.80
2019-03-13T08:13:01.170Z,86.60
2019-03-13T08:15:44.752Z,86.50
2019-03-13T08:18:14.772Z,87.00
2019-03-13T08:20:50.540Z,86.60
2019-03-13T08:23:20.553Z,86.40
2019-03-13T08:26:06.742Z,85.10
2019-03-13T08:28:39.298Z,84.10
2019-03-13T08:31:09.386Z,84.20
2019-03-13T08:33:56.647Z,84.70
2019-03-13T08:36:26.677Z,84.30
2019-03-13T08:39:02.880Z,84.90
2019-03-13T08:41:32.936Z,86.60
2019-03-13T08:44:05.865Z,87.60
2019-03-13T08:46:35.893Z,87.50
2019-03-13T08:49:22.330Z,87.50
2019-03-13T08:52:04.816Z,86.90
2019-03-13T08:54:34.954Z,87.00
2019-03-13T08:57:17.216Z,86.60
2019-03-13T08:59:59.249Z,86.20
2019-03-13T09:02:29.285Z,86.00
2019-03-13T09:04:59.331Z,86.70
2019-03-13T09:07:38.680Z,86.60
2019-03-13T09:10:26.931Z,86.70
2019-03-13T09:13:01.496Z,88.90
2019-03-13T09:15:38.447Z,87.80
2019-03-13T09:18:08.483Z,87.90
2019-03-13T09:20:53.846Z,87.30
2019-03-13T09:23:26.841Z,87.60
2019-03-13T09:26:07.019Z,88.20
2019-03-13T09:28:55.632Z,88.20
2019-03-13T09:31:25.788Z,88.00
2019-03-13T09:33:58.519Z,87.70
2019-03-13T09:36:35.487Z,88.00
2019-03-13T09:39:15.723Z,88.10
2019-03-13T09:41:48.605Z,88.10
2019-03-13T09:44:21.422Z,88.80
2019-03-13T09:46:54.627Z,88.90
2019-03-13T09:49:33.591Z,88.60
2019-03-13T09:52:09.993Z,89.10
2019-03-13T09:54:42.927Z,89.10
2019-03-13T09:57:22.084Z,88.60
2019-03-13T10:00:04.361Z,88.30
2019-03-13T10:02:51.002Z,88.60
2019-03-13T10:05:24.299Z,88.70
2019-03-13T10:08:12.321Z,87.60
2019-03-13T10:10:45.257Z,87.20
2019-03-13T10:13:24.355Z,87.00
2019-03-13T10:15:57.363Z,87.10
2019-03-13T10:18:30.121Z,86.80
2019-03-13T10:21:00.208Z,86.50
2019-03-13T10:23:46.535Z,86.90
2019-03-13T10:26:22.354Z,87.00
2019-03-13T10:28:55.413Z,87.10
2019-03-13T10:31:37.444Z,87.50
2019-03-13T10:34:07.605Z,87.10
2019-03-13T10:36:50.772Z,87.10
2019-03-13T10:42:15.422Z,86.20
2019-03-13T10:44:49.483Z,86.10
2019-03-13T10:47:19.597Z,85.70
2019-03-13T10:49:52.381Z,86.20
2019-03-13T10:52:28.322Z,85.10
2019-03-13T10:55:01.062Z,84.80
2019-03-13T10:57:43.262Z,84.90
2019-03-13T11:00:21.313Z,85.40
2019-03-13T11:03:07.870Z,85.80
2019-03-13T11:05:54.472Z,85.70
2019-03-13T11:08:30.703Z,86.60
2019-03-13T11:11:00.817Z,86.60
2019-03-13T11:13:39.475Z,87.20
2019-03-13T11:16:21.868Z,86.70
2019-03-13T11:18:54.675Z,87.10
2019-03-13T11:21:27.859Z,87.00
2019-03-13T11:24:04.218Z,87.10
2019-03-13T11:26:50.527Z,86.80
2019-03-13T11:29:20.545Z,87.00
2019-03-13T11:31:50.595Z,87.10
2019-03-13T11:34:23.648Z,86.90
2019-03-13T11:37:09.985Z,86.60
2019-03-13T11:39:58.417Z,87.50
2019-03-13T11:42:44.831Z,87.30
2019-03-13T11:45:28.231Z,88.10
2019-03-13T11:48:01.188Z,88.20
2019-03-13T11:50:40.299Z,88.80
2019-03-13T11:53:16.634Z,88.00
2019-03-13T11:55:49.614Z,87.60
2019-03-13T11:58:37.769Z,87.70
2019-03-13T12:01:07.880Z,89.00
2019-03-13T12:03:54.150Z,89.10
2019-03-13T12:06:36.311Z,88.70
2019-03-13T12:09:10.088Z,88.70
2019-03-13T12:11:40.130Z,88.20
2019-03-13T12:14:10.290Z,87.70
2019-03-13T12:16:46.348Z,88.00
2019-03-13T12:19:25.287Z,86.70
2019-03-13T12:22:04.480Z,86.20
2019-03-13T12:24:37.205Z,86.50
2019-03-13T12:27:13.414Z,87.20
2019-03-13T12:30:01.710Z,87.30
2019-03-13T12:32:43.413Z,88.40
2019-03-13T12:35:22.778Z,88.20
2019-03-13T12:37:58.882Z,87.40
2019-03-13T12:40:28.973Z,87.70
2019-03-13T12:42:59.057Z,88.10
2019-03-13T12:45:45.451Z,87.60
2019-03-13T12:48:32.181Z,87.90
2019-03-13T12:51:02.247Z,88.90
2019-03-13T12:53:32.330Z,88.60
2019-03-13T12:56:03.362Z,88.20
2019-03-13T12:58:49.538Z,86.40
2019-03-13T13:01:37.953Z,84.70
2019-03-13T13:06:55.214Z,85.00
2019-03-13T13:09:34.656Z,85.70
2019-03-13T13:12:07.684Z,86.30
2019-03-13T13:14:54.239Z,88.00
2019-03-13T13:17:24.291Z,88.60
2019-03-13T13:19:52.684Z,90.00
2019-03-13T13:22:21.094Z,90.10
2019-03-13T13:24:49.485Z,90.40
2019-03-13T13:27:17.974Z,90.70
2019-03-13T13:29:46.482Z,91.00
2019-03-13T13:32:14.886Z,90.80
2019-03-13T13:34:43.355Z,90.60
2019-03-13T13:37:11.845Z,89.70
2019-03-13T13:39:40.245Z,88.20
2019-03-13T13:42:08.714Z,86.90
2019-03-13T13:44:37.118Z,84.50
2019-03-13T13:47:05.550Z,82.70
2019-03-13T13:49:33.997Z,81.40
2019-03-13T13:52:02.458Z,83.10
2019-03-13T13:54:30.921Z,82.50
2019-03-13T13:56:59.323Z,83.50
2019-03-13T13:59:27.723Z,83.80
2019-03-13T14:01:56.180Z,83.50
2019-03-13T14:04:24.592Z,83.80
2019-03-13T14:06:53.062Z,83.90
2019-03-13T14:09:22.588Z,84.30
2019-03-13T14:11:51.050Z,84.30
2019-03-13T14:14:19.518Z,84.60
2019-03-13T14:16:47.924Z,84.50
2019-03-13T14:19:16.357Z,84.10
2019-03-13T14:21:44.836Z,84.30
2019-03-13T14:24:13.260Z,83.60
2019-03-13T14:26:41.712Z,84.30
2019-03-13T14:29:10.134Z,83.70
2019-03-13T14:31:38.531Z,83.60
2019-03-13T14:34:06.958Z,84.30
2019-03-13T14:36:35.405Z,86.70
2019-03-13T14:39:04.874Z,86.40
2019-03-13T14:41:33.294Z,87.60
2019-03-13T14:44:01.687Z,86.60
2019-03-13T14:46:30.181Z,85.30
2019-03-13T14:48:58.751Z,84.80
2019-03-13T14:51:27.146Z,85.30
2019-03-13T14:53:55.557Z,85.20
2019-03-13T14:56:24.094Z,84.70
2019-03-13T14:58:52.485Z,83.70
2019-03-13T15:01:20.904Z,84.90
2019-03-13T15:03:49.477Z,84.40
2019-03-13T15:06:17.868Z,85.50
2019-03-13T15:08:46.418Z,85.20
2019-03-13T15:11:14.826Z,85.50
2019-03-13T15:13:43.255Z,85.40
2019-03-13T15:16:11.689Z,85.30
2019-03-13T15:18:40.137Z,85.50
2019-03-13T15:21:08.514Z,86.30
2019-03-13T15:23:36.940Z,86.70
2019-03-13T15:26:05.383Z,83.80
2019-03-13T15:28:33.783Z,82.60
2019-03-13T15:31:02.250Z,82.30
2019-03-13T15:33:30.646Z,81.10
2019-03-13T15:36:00.038Z,81.60
2019-03-13T15:38:28.482Z,81.30
2019-03-13T15:40:58.084Z,81.00
2019-03-13T15:43:26.726Z,81.70
2019-03-13T15:45:55.117Z,81.90
2019-03-13T15:48:23.615Z,81.80
2019-03-13T15:50:51.991Z,81.40
2019-03-13T15:53:20.403Z,81.70
2019-03-13T15:55:48.884Z,81.90
2019-03-13T15:58:17.280Z,82.60
2019-03-13T16:00:45.737Z,82.70
2019-03-13T16:03:14.121Z,83.90
2019-03-13T16:05:44.546Z,86.10
2019-03-13T16:08:12.934Z,87.30
2019-03-13T16:10:41.404Z,87.90
2019-03-13T16:13:10.859Z,88.50
2019-03-13T16:15:40.741Z,89.60
2019-03-13T16:18:09.253Z,89.90
2019-03-13T16:20:37.735Z,89.90
2019-03-13T16:23:06.166Z,89.60
2019-03-13T16:25:35.683Z,90.10
2019-03-13T16:28:04.162Z,90.20
2019-03-13T16:30:52.401Z,90.00
2019-03-13T16:33:20.868Z,89.50
2019-03-13T16:35:49.262Z,89.90
2019-03-13T16:38:17.725Z,89.50
2019-03-13T16:40:46.099Z,90.00
2019-03-13T16:43:14.618Z,90.30
2019-03-13T16:45:43.038Z,90.30
2019-03-13T16:48:11.437Z,90.40
2019-03-13T16:50:39.876Z,90.50
2019-03-13T16:53:08.254Z,90.50
2019-03-13T16:55:37.646Z,90.50
2019-03-13T16:58:06.018Z,90.50
2019-03-13T17:00:34.806Z,90.80
2019-03-13T17:03:03.237Z,90.60
2019-03-13T17:05:44.872Z,90.60
2019-03-13T17:08:13.256Z,90.70
2019-03-13T17:10:41.676Z,90.70
2019-03-13T17:13:10.085Z,90.60
2019-03-13T17:15:39.558Z,90.30
2019-03-13T17:18:07.958Z,90.40
2019-03-13T17:20:40.741Z,90.30
2019-03-13T17:23:09.256Z,90.40
2019-03-13T17:25:37.649Z,90.80
2019-03-13T17:28:06.062Z,91.00
2019-03-13T17:30:34.456Z,91.20
2019-03-13T17:33:02.898Z,91.20
2019-03-13T17:35:31.295Z,91.10
2019-03-13T17:38:00.706Z,91.10
2019-03-13T17:40:33.077Z,90.50
2019-03-13T17:43:01.547Z,90.10
2019-03-13T17:45:30.038Z,89.40
2019-03-13T17:47:58.427Z,89.50
2019-03-13T17:50:26.883Z,90.00
2019-03-13T17:52:55.313Z,90.00
2019-03-13T17:55:43.172Z,90.20
2019-03-13T17:58:11.590Z,90.40
2019-03-13T18:00:51.423Z,90.50
2019-03-13T18:03:20.815Z,90.50
2019-03-13T18:05:49.200Z,90.40
2019-03-13T18:08:17.598Z,90.30
2019-03-13T18:10:46.030Z,90.20
2019-03-13T18:13:14.414Z,90.00
2019-03-13T18:15:42.937Z,90.00
2019-03-13T18:18:11.319Z,90.00
2019-03-13T18:20:39.752Z,90.30
2019-03-13T18:23:08.222Z,90.60
2019-03-13T18:25:36.566Z,90.70
2019-03-13T18:28:05.040Z,90.70
2019-03-13T18:30:34.666Z,90.70
2019-03-13T18:33:03.058Z,90.90
2019-03-13T18:35:31.513Z,90.60
2019-03-13T18:37:59.960Z,90.60
2019-03-13T18:40:28.335Z,90.30
2019-03-13T18:42:56.791Z,90.40
2019-03-13T18:45:28.005Z,90.30
2019-03-13T18:47:56.632Z,90.20
2019-03-13T18:50:25.022Z,90.20
2019-03-13T18:52:53.428Z,90.60
2019-03-13T18:55:24.338Z,90.80
2019-03-13T18:57:52.785Z,90.80
2019-03-13T19:00:28.314Z,90.90
2019-03-13T19:02:56.872Z,90.70
2019-03-13T19:05:27.344Z,90.60
2019-03-13T19:07:55.779Z,90.60
2019-03-13T19:10:28.529Z,90.20
2019-03-13T19:12:56.978Z,89.70
2019-03-13T19:15:25.438Z,89.20
2019-03-13T19:17:53.822Z,89.10
2019-03-13T19:20:26.181Z,89.40
2019-03-13T19:22:54.559Z,88.90
2019-03-13T19:25:24.077Z,88.90
2019-03-13T19:27:52.478Z,89.00
2019-03-13T19:30:26.140Z,89.00
2019-03-13T19:32:54.545Z,88.40
2019-03-13T19:35:22.985Z,88.90
2019-03-13T19:37:51.503Z,88.80
2019-03-13T19:40:20.911Z,88.30
2019-03-13T19:42:49.327Z,88.60
2019-03-13T19:45:26.788Z,89.40
2019-03-13T19:47:55.242Z,89.20
2019-03-13T19:50:23.642Z,89.90
2019-03-13T19:52:52.045Z,89.50
2019-03-13T19:55:20.448Z,89.10
2019-03-13T19:57:48.846Z,88.90
2019-03-13T20:00:22.792Z,89.00
2019-03-13T20:03:00.045Z,89.00
2019-03-13T20:05:21.275Z,89.00
2019-03-13T20:07:49.814Z,90.10
2019-03-13T20:10:21.617Z,90.40
2019-03-13T20:12:50.024Z,90.40
2019-03-13T20:15:20.297Z,90.60
2019-03-13T20:17:48.804Z,90.20
2019-03-13T20:20:19.134Z,90.10
2019-03-13T20:22:48.935Z,90.00
2019-03-13T20:25:18.116Z,89.60
2019-03-13T20:27:46.838Z,89.10
2019-03-13T20:30:17.834Z,88.80
2019-03-13T20:32:46.325Z,88.60
2019-03-13T20:35:14.733Z,89.00
2019-03-13T20:37:43.113Z,89.50
2019-03-13T20:40:39.556Z,90.10
2019-03-13T20:43:08.096Z,90.80
2019-03-13T20:45:36.525Z,90.80
2019-03-13T20:48:05.017Z,91.10
2019-03-13T20:50:37.165Z,91.60
2019-03-13T20:53:03.668Z,91.00
2019-03-13T20:55:33.097Z,91.00
2019-03-13T20:58:01.548Z,91.00
2019-03-13T21:00:30.053Z,90.70
2019-03-13T21:02:58.723Z,90.50
2019-03-13T21:05:27.146Z,90.30
2019-03-13T21:07:55.557Z,90.20
2019-03-13T21:10:23.982Z,90.10
2019-03-13T21:12:52.393Z,89.00
2019-03-13T21:15:23.248Z,88.80
2019-03-13T21:17:51.734Z,88.70
2019-03-13T21:20:20.557Z,88.80
2019-03-13T21:22:48.966Z,88.60
2019-03-13T21:25:22.500Z,89.30
2019-03-13T21:27:50.869Z,89.50
2019-03-13T21:30:27.273Z,89.20
2019-03-13T21:32:55.896Z,89.30
2019-03-13T21:35:24.332Z,89.10
2019-03-13T21:37:52.743Z,89.10
2019-03-13T21:40:25.256Z,89.40
2019-03-13T21:42:54.893Z,88.80
2019-03-13T21:45:23.705Z,89.30
2019-03-13T21:47:52.082Z,89.40
2019-03-13T21:50:20.612Z,89.40
2019-03-13T21:52:49.110Z,89.50
2019-03-13T21:55:18.262Z,88.80
2019-03-13T21:57:46.676Z,88.90
2019-03-13T22:00:25.384Z,88.70
2019-03-13T22:02:53.784Z,88.90
2019-03-13T22:05:26.066Z,89.00
2019-03-13T22:07:52.576Z,89.00
2019-03-13T22:10:21.253Z,89.40
2019-03-13T22:12:49.688Z,90.00
2019-03-13T22:15:20.282Z,90.00
2019-03-13T22:17:48.703Z,90.20
2019-03-13T22:20:17.536Z,90.50
2019-03-13T22:22:46.045Z,90.60
2019-03-13T22:25:15.677Z,90.60
2019-03-13T22:27:44.131Z,90.60
2019-03-13T22:30:18.726Z,90.50
2019-03-13T22:32:47.114Z,90.20
2019-03-13T22:35:15.642Z,90.00
2019-03-13T22:37:44.132Z,90.20
2019-03-13T22:40:16.218Z,90.00
2019-03-13T22:42:44.564Z,89.90
2019-03-13T22:45:20.769Z,90.00
2019-03-13T22:47:49.226Z,90.00
2019-03-13T22:50:20.122Z,90.10
2019-03-13T22:52:48.614Z,90.20
2019-03-13T22:55:17.024Z,90.30
2019-03-13T22:57:45.454Z,90.10
2019-03-13T23:00:51.905Z,90.00
2019-03-13T23:03:27.500Z,90.00
2019-03-13T23:05:56.057Z,90.10
2019-03-13T23:08:24.466Z,89.50
2019-03-13T23:10:52.862Z,89.60
2019-03-13T23:13:21.348Z,89.00
2019-03-13T23:15:49.754Z,88.60
2019-03-13T23:18:18.678Z,88.60
2019-03-13T23:20:47.157Z,88.60
2019-03-13T23:23:15.608Z,89.10
2019-03-13T23:25:45.013Z,88.70
2019-03-13T23:28:13.453Z,88.70
2019-03-13T23:30:41.862Z,89.20
2019-03-13T23:33:10.323Z,88.10
2019-03-13T23:35:38.681Z,88.10
2019-03-13T23:38:07.099Z,88.00
2019-03-13T23:40:35.514Z,87.60
2019-03-13T23:43:03.922Z,87.70
2019-03-13T23:45:33.382Z,87.30
2019-03-13T23:48:01.798Z,87.20
2019-03-13T23:50:30.277Z,87.10
2019-03-13T23:52:58.800Z,87.10
2019-03-13T23:55:27.175Z,86.70
2019-03-13T23:57:55.557Z,86.90
